sensor_id;sensor_type;location;lat;lon;timestamp;pressure;altitude;pressure_sealevel;temperature;humidity
56074;BME280;41950;55.840;37.442;2023-03-25T00:01:02;98464.97;;;5.14;86.06
56074;BME280;41950;55.840;37.442;2023-03-25T00:03:30;98464.97;;;5.12;85.85
56074;BME280;41950;55.840;37.442;2023-03-25T00:05:58;98461.59;;;5.10;86.06
56074;BME280;41950;55.840;37.442;2023-03-25T00:08:24;98465.03;;;5.09;85.84
56074;BME280;41950;55.840;37.442;2023-03-25T00:10:51;98459.97;;;5.05;85.99
56074;BME280;41950;55.840;37.442;2023-03-25T00:13:18;98448.03;;;4.99;86.38
56074;BME280;41950;55.840;37.442;2023-03-25T00:15:44;98453.97;;;5.04;86.07
56074;BME280;41950;55.840;37.442;2023-03-25T00:18:13;98449.66;;;5.05;86.30
56074;BME280;41950;55.840;37.442;2023-03-25T00:20:42;98438.53;;;5.04;86.18
56074;BME280;41950;55.840;37.442;2023-03-25T00:23:11;98437.66;;;5.05;86.01
56074;BME280;41950;55.840;37.442;2023-03-25T00:25:37;98407.94;;;4.86;86.13
56074;BME280;41950;55.840;37.442;2023-03-25T00:28:03;98408.88;;;4.82;86.16
56074;BME280;41950;55.840;37.442;2023-03-25T00:30:28;98430.91;;;5.00;86.23
56074;BME280;41950;55.840;37.442;2023-03-25T00:32:54;98398.63;;;4.80;86.22
56074;BME280;41950;55.840;37.442;2023-03-25T00:35:22;98421.50;;;4.99;86.08
56074;BME280;41950;55.840;37.442;2023-03-25T00:37:50;98422.38;;;4.96;86.33
56074;BME280;41950;55.840;37.442;2023-03-25T00:40:29;98412.91;;;5.00;86.08
56074;BME280;41950;55.840;37.442;2023-03-25T00:43:03;98402.72;;;4.93;86.00
56074;BME280;41950;55.840;37.442;2023-03-25T00:45:29;98394.19;;;4.88;86.12
56074;BME280;41950;55.840;37.442;2023-03-25T00:48:01;98401.03;;;4.89;86.35
56074;BME280;41950;55.840;37.442;2023-03-25T00:50:29;98396.88;;;4.81;86.16
56074;BME280;41950;55.840;37.442;2023-03-25T00:52:55;98396.03;;;4.80;86.54
56074;BME280;41950;55.840;37.442;2023-03-25T00:55:21;98398.47;;;4.89;86.35
56074;BME280;41950;55.840;37.442;2023-03-25T00:57:47;98393.28;;;4.91;86.14
56074;BME280;41950;55.840;37.442;2023-03-25T01:00:15;98393.28;;;4.94;86.30
56074;BME280;41950;55.840;37.442;2023-03-25T01:02:42;98380.41;;;4.95;85.95
56074;BME280;41950;55.840;37.442;2023-03-25T01:05:08;98376.03;;;5.01;85.75
56074;BME280;41950;55.840;37.442;2023-03-25T01:07:35;98383.66;;;5.05;85.57
56074;BME280;41950;55.840;37.442;2023-03-25T01:10:02;98369.22;;;4.98;85.41
56074;BME280;41950;55.840;37.442;2023-03-25T01:12:28;98385.41;;;5.03;85.69
56074;BME280;41950;55.840;37.442;2023-03-25T01:14:54;98381.06;;;5.07;85.83
56074;BME280;41950;55.840;37.442;2023-03-25T01:17:20;98376.06;;;4.99;85.68
56074;BME280;41950;55.840;37.442;2023-03-25T01:19:48;98371.84;;;4.95;85.64
56074;BME280;41950;55.840;37.442;2023-03-25T01:22:14;98383.78;;;4.99;85.60
56074;BME280;41950;55.840;37.442;2023-03-25T01:24:40;98369.22;;;4.98;85.70
56074;BME280;41950;55.840;37.442;2023-03-25T01:27:05;98380.31;;;5.00;85.55
56074;BME280;41950;55.840;37.442;2023-03-25T01:29:31;98353.03;;;4.90;85.76
56074;BME280;41950;55.840;37.442;2023-03-25T01:31:57;98346.22;;;4.87;85.64
56074;BME280;41950;55.840;37.442;2023-03-25T01:34:23;98336.03;;;4.83;85.82
56074;BME280;41950;55.840;37.442;2023-03-25T01:36:49;98352.97;;;4.96;85.74
56074;BME280;41950;55.840;37.442;2023-03-25T01:39:16;98346.13;;;4.95;85.94
56074;BME280;41950;55.840;37.442;2023-03-25T01:41:44;98344.25;;;5.05;85.73
56074;BME280;41950;55.840;37.442;2023-03-25T01:46:40;98325.31;;;5.09;85.53
56074;BME280;41950;55.840;37.442;2023-03-25T01:49:26;98337.16;;;5.17;85.56
56074;BME280;41950;55.840;37.442;2023-03-25T01:51:57;98331.09;;;5.20;85.24
56074;BME280;41950;55.840;37.442;2023-03-25T01:54:24;98322.53;;;5.21;85.19
56074;BME280;41950;55.840;37.442;2023-03-25T01:56:52;98317.31;;;5.25;85.09
56074;BME280;41950;55.840;37.442;2023-03-25T01:59:22;98309.66;;;5.22;84.98
56074;BME280;41950;55.840;37.442;2023-03-25T02:01:50;98291.84;;;5.10;85.20
56074;BME280;41950;55.840;37.442;2023-03-25T02:04:24;98308.75;;;5.25;85.23
56074;BME280;41950;55.840;37.442;2023-03-25T02:06:53;98284.81;;;5.20;85.14
56074;BME280;41950;55.840;37.442;2023-03-25T02:09:22;98307.84;;;5.27;84.77
56074;BME280;41950;55.840;37.442;2023-03-25T02:11:49;98307.78;;;5.31;84.88
56074;BME280;41950;55.840;37.442;2023-03-25T02:14:22;98311.19;;;5.33;84.54
56074;BME280;41950;55.840;37.442;2023-03-25T02:27:55;98284.31;;;5.49;84.52
56074;BME280;41950;55.840;37.442;2023-03-25T02:30:33;98281.59;;;5.55;84.56
56074;BME280;41950;55.840;37.442;2023-03-25T02:33:36;98260.28;;;5.48;84.20
56074;BME280;41950;55.840;37.442;2023-03-25T02:38:38;98234.63;;;5.44;84.60
56074;BME280;41950;55.840;37.442;2023-03-25T02:41:23;98258.31;;;5.61;84.38
56074;BME280;41950;55.840;37.442;2023-03-25T02:44:00;98248.91;;;5.60;84.65
56074;BME280;41950;55.840;37.442;2023-03-25T02:46:28;98250.50;;;5.66;84.77
56074;BME280;41950;55.840;37.442;2023-03-25T02:49:02;98251.13;;;5.77;84.56
56074;BME280;41950;55.840;37.442;2023-03-25T02:51:39;98224.56;;;5.76;84.11
56074;BME280;41950;55.840;37.442;2023-03-25T02:54:10;98235.50;;;5.86;83.85
56074;BME280;41950;55.840;37.442;2023-03-25T02:56:39;98231.97;;;5.92;83.83
56074;BME280;41950;55.840;37.442;2023-03-25T02:59:07;98233.50;;;5.99;83.52
56074;BME280;41950;55.840;37.442;2023-03-25T03:01:34;98222.34;;;6.00;83.56
56074;BME280;41950;55.840;37.442;2023-03-25T03:04:00;98215.53;;;5.97;83.37
56074;BME280;41950;55.840;37.442;2023-03-25T03:06:27;98231.47;;;6.14;83.10
56074;BME280;41950;55.840;37.442;2023-03-25T03:09:14;98230.38;;;6.23;83.00
56074;BME280;41950;55.840;37.442;2023-03-25T03:25:33;98198.16;;;6.42;82.23
56074;BME280;41950;55.840;37.442;2023-03-25T03:28:06;98182.63;;;6.45;82.06
56074;BME280;41950;55.840;37.442;2023-03-25T03:33:35;98167.34;;;6.38;81.95
56074;BME280;41950;55.840;37.442;2023-03-25T03:36:09;98179.97;;;6.48;81.66
56074;BME280;41950;55.840;37.442;2023-03-25T03:38:42;98166.97;;;6.53;81.86
56074;BME280;41950;55.840;37.442;2023-03-25T03:41:14;98162.59;;;6.55;81.51
56074;BME280;41950;55.840;37.442;2023-03-25T03:46:25;98133.38;;;6.56;81.20
56074;BME280;41950;55.840;37.442;2023-03-25T03:48:57;98154.41;;;6.73;81.02
56074;BME280;41950;55.840;37.442;2023-03-25T03:51:30;98147.47;;;6.75;80.96
56074;BME280;41950;55.840;37.442;2023-03-25T03:54:10;98123.69;;;6.66;80.56
56074;BME280;41950;55.840;37.442;2023-03-25T03:56:44;98143.88;;;6.81;80.77
56074;BME280;41950;55.840;37.442;2023-03-25T03:59:22;98119.25;;;6.71;80.36
56074;BME280;41950;55.840;37.442;2023-03-25T04:01:57;98133.66;;;6.78;80.59
56074;BME280;41950;55.840;37.442;2023-03-25T04:04:24;98127.63;;;6.79;80.31
56074;BME280;41950;55.840;37.442;2023-03-25T04:09:56;98116.97;;;6.91;80.29
56074;BME280;41950;55.840;37.442;2023-03-25T04:12:32;98097.53;;;6.79;80.13
56074;BME280;41950;55.840;37.442;2023-03-25T04:15:00;98117.69;;;6.96;79.93
56074;BME280;41950;55.840;37.442;2023-03-25T04:17:29;98119.38;;;6.97;80.10
56074;BME280;41950;55.840;37.442;2023-03-25T04:19:58;98110.84;;;6.95;79.81
56074;BME280;41950;55.840;37.442;2023-03-25T04:22:24;98118.44;;;7.00;79.84
56074;BME280;41950;55.840;37.442;2023-03-25T04:24:50;98084.44;;;6.87;79.84
56074;BME280;41950;55.840;37.442;2023-03-25T04:27:19;98101.25;;;7.00;79.74
56074;BME280;41950;55.840;37.442;2023-03-25T04:29:48;98094.31;;;7.02;79.57
56074;BME280;41950;55.840;37.442;2023-03-25T04:32:14;98079.72;;;7.01;79.62
56074;BME280;41950;55.840;37.442;2023-03-25T04:34:40;98077.94;;;7.03;79.82
56074;BME280;41950;55.840;37.442;2023-03-25T04:37:06;98081.19;;;7.10;79.50
56074;BME280;41950;55.840;37.442;2023-03-25T04:39:32;98080.03;;;7.20;79.23
56074;BME280;41950;55.840;37.442;2023-03-25T04:41:58;98084.25;;;7.23;79.33
56074;BME280;41950;55.840;37.442;2023-03-25T04:44:31;98050.28;;;7.08;78.84
56074;BME280;41950;55.840;37.442;2023-03-25T04:47:04;98078.88;;;7.30;79.21
56074;BME280;41950;55.840;37.442;2023-03-25T04:49:31;98075.41;;;7.31;78.75
56074;BME280;41950;55.840;37.442;2023-03-25T04:51:57;98056.25;;;7.38;78.64
56074;BME280;41950;55.840;37.442;2023-03-25T04:54:23;98059.56;;;7.43;78.81
56074;BME280;41950;55.840;37.442;2023-03-25T04:56:50;98067.06;;;7.51;78.35
56074;BME280;41950;55.840;37.442;2023-03-25T04:59:17;98040.66;;;7.43;78.19
56074;BME280;41950;55.840;37.442;2023-03-25T05:01:43;98051.78;;;7.45;77.96
56074;BME280;41950;55.840;37.442;2023-03-25T05:04:12;98043.88;;;7.50;78.06
56074;BME280;41950;55.840;37.442;2023-03-25T05:06:47;98033.75;;;7.43;77.84
56074;BME280;41950;55.840;37.442;2023-03-25T05:09:16;98041.59;;;7.39;78.04
56074;BME280;41950;55.840;37.442;2023-03-25T05:11:44;98042.00;;;7.27;78.30
56074;BME280;41950;55.840;37.442;2023-03-25T05:14:11;98054.84;;;7.28;78.48
56074;BME280;41950;55.840;37.442;2023-03-25T05:16:37;98064.19;;;7.32;78.64
56074;BME280;41950;55.840;37.442;2023-03-25T05:19:04;98056.34;;;7.35;78.52
56074;BME280;41950;55.840;37.442;2023-03-25T05:21:35;98067.06;;;7.51;78.21
56074;BME280;41950;55.840;37.442;2023-03-25T05:24:03;98060.91;;;7.55;78.02
56074;BME280;41950;55.840;37.442;2023-03-25T05:26:29;98042.84;;;7.55;78.00
56074;BME280;41950;55.840;37.442;2023-03-25T05:29:03;98046.63;;;7.71;77.57
56074;BME280;41950;55.840;37.442;2023-03-25T05:31:29;97994.97;;;7.45;77.38
56074;BME280;41950;55.840;37.442;2023-03-25T05:33:55;98013.66;;;7.53;77.60
56074;BME280;41950;55.840;37.442;2023-03-25T05:36:21;98048.13;;;7.79;77.57
56074;BME280;41950;55.840;37.442;2023-03-25T05:38:53;98041.31;;;7.76;77.72
56074;BME280;41950;55.840;37.442;2023-03-25T05:41:20;98035.22;;;7.79;77.36
56074;BME280;41950;55.840;37.442;2023-03-25T05:43:47;98036.69;;;7.86;77.81
56074;BME280;41950;55.840;37.442;2023-03-25T05:46:16;98039.31;;;7.84;77.86
56074;BME280;41950;55.840;37.442;2023-03-25T05:48:43;98035.09;;;7.82;77.83
56074;BME280;41950;55.840;37.442;2023-03-25T05:51:11;98016.81;;;7.88;77.80
56074;BME280;41950;55.840;37.442;2023-03-25T05:53:38;98036.69;;;8.12;77.04
56074;BME280;41950;55.840;37.442;2023-03-25T05:56:04;98039.31;;;8.37;76.40
56074;BME280;41950;55.840;37.442;2023-03-25T05:58:30;98005.41;;;8.45;75.75
56074;BME280;41950;55.840;37.442;2023-03-25T06:00:57;98028.13;;;8.85;75.31
56074;BME280;41950;55.840;37.442;2023-03-25T06:03:24;98030.66;;;9.10;74.57
56074;BME280;41950;55.840;37.442;2023-03-25T06:05:51;98021.63;;;9.20;73.82
56074;BME280;41950;55.840;37.442;2023-03-25T06:08:18;98021.16;;;9.32;73.40
56074;BME280;41950;55.840;37.442;2023-03-25T06:10:51;98023.25;;;9.22;73.59
56074;BME280;41950;55.840;37.442;2023-03-25T06:13:23;98009.44;;;9.00;74.40
56074;BME280;41950;55.840;37.442;2023-03-25T06:15:49;98003.53;;;8.96;74.88
56074;BME280;41950;55.840;37.442;2023-03-25T06:18:21;97985.94;;;8.83;75.08
56074;BME280;41950;55.840;37.442;2023-03-25T06:20:52;98008.16;;;8.88;75.04
56074;BME280;41950;55.840;37.442;2023-03-25T06:23:23;97983.47;;;8.56;75.55
56074;BME280;41950;55.840;37.442;2023-03-25T06:25:50;98003.63;;;8.47;76.46
56074;BME280;41950;55.840;37.442;2023-03-25T06:28:16;98011.31;;;8.48;77.10
56074;BME280;41950;55.840;37.442;2023-03-25T06:30:45;98023.47;;;8.46;77.48
56074;BME280;41950;55.840;37.442;2023-03-25T06:33:12;98012.56;;;8.38;78.15
56074;BME280;41950;55.840;37.442;2023-03-25T06:35:42;98014.34;;;8.36;78.83
56074;BME280;41950;55.840;37.442;2023-03-25T06:38:08;98022.34;;;8.28;79.38
56074;BME280;41950;55.840;37.442;2023-03-25T06:40:37;98003.88;;;8.14;80.15
56074;BME280;41950;55.840;37.442;2023-03-25T06:43:04;98034.84;;;8.16;80.99
56074;BME280;41950;55.840;37.442;2023-03-25T06:45:30;98017.22;;;8.02;82.03
56074;BME280;41950;55.840;37.442;2023-03-25T06:47:56;98019.75;;;8.03;82.62
56074;BME280;41950;55.840;37.442;2023-03-25T06:50:22;97995.16;;;7.92;83.89
56074;BME280;41950;55.840;37.442;2023-03-25T06:52:48;97990.25;;;7.84;84.14
56074;BME280;41950;55.840;37.442;2023-03-25T06:55:14;98001.81;;;7.99;84.55
56074;BME280;41950;55.840;37.442;2023-03-25T06:57:40;97997.00;;;7.88;84.76
56074;BME280;41950;55.840;37.442;2023-03-25T07:00:07;97994.19;;;7.96;85.49
56074;BME280;41950;55.840;37.442;2023-03-25T07:02:34;97992.63;;;7.90;85.48
56074;BME280;41950;55.840;37.442;2023-03-25T07:05:00;98008.47;;;8.06;85.60
56074;BME280;41950;55.840;37.442;2023-03-25T07:07:25;98002.72;;;7.98;85.98
56074;BME280;41950;55.840;37.442;2023-03-25T07:09:52;97993.38;;;7.94;86.31
56074;BME280;41950;55.840;37.442;2023-03-25T07:12:20;98002.72;;;7.98;86.26
56074;BME280;41950;55.840;37.442;2023-03-25T07:14:53;97998.19;;;8.04;86.41
56074;BME280;41950;55.840;37.442;2023-03-25T07:17:20;98009.94;;;8.13;86.46
56074;BME280;41950;55.840;37.442;2023-03-25T07:19:46;98006.41;;;8.16;86.32
56074;BME280;41950;55.840;37.442;2023-03-25T07:22:11;98005.63;;;8.14;86.34
56074;BME280;41950;55.840;37.442;2023-03-25T07:24:37;97987.22;;;7.98;87.05
56074;BME280;41950;55.840;37.442;2023-03-25T07:27:03;97973.56;;;7.94;87.13
56074;BME280;41950;55.840;37.442;2023-03-25T07:29:28;97985.28;;;8.04;87.63
56074;BME280;41950;55.840;37.442;2023-03-25T07:31:54;97983.13;;;7.91;87.84
56074;BME280;41950;55.840;37.442;2023-03-25T07:34:20;97966.28;;;7.81;88.51
56074;BME280;41950;55.840;37.442;2023-03-25T07:36:46;97976.34;;;7.88;88.46
56074;BME280;41950;55.840;37.442;2023-03-25T07:39:11;97994.97;;;7.98;88.59
56074;BME280;41950;55.840;37.442;2023-03-25T07:41:40;97983.59;;;8.03;88.49
56074;BME280;41950;55.840;37.442;2023-03-25T07:44:07;97991.84;;;8.13;88.28
56074;BME280;41950;55.840;37.442;2023-03-25T07:46:32;98001.06;;;8.20;88.18
56074;BME280;41950;55.840;37.442;2023-03-25T07:48:58;98001.28;;;8.14;88.20
56074;BME280;41950;55.840;37.442;2023-03-25T07:51:24;98005.03;;;8.05;88.73
56074;BME280;41950;55.840;37.442;2023-03-25T07:53:49;97999.94;;;8.04;88.63
56074;BME280;41950;55.840;37.442;2023-03-25T07:56:15;97985.63;;;7.94;89.10
56074;BME280;41950;55.840;37.442;2023-03-25T07:58:41;98010.16;;;8.07;88.74
56074;BME280;41950;55.840;37.442;2023-03-25T08:01:09;98011.91;;;8.06;88.86
56074;BME280;41950;55.840;37.442;2023-03-25T08:03:34;98028.34;;;8.04;89.09
56074;BME280;41950;55.840;37.442;2023-03-25T08:06:03;98028.44;;;8.01;89.36
56074;BME280;41950;55.840;37.442;2023-03-25T08:08:28;98006.50;;;7.88;89.20
56074;BME280;41950;55.840;37.442;2023-03-25T08:10:54;98034.50;;;8.00;89.45
56074;BME280;41950;55.840;37.442;2023-03-25T08:13:21;98017.63;;;7.90;90.08
56074;BME280;41950;55.840;37.442;2023-03-25T08:15:46;98028.72;;;7.92;90.62
56074;BME280;41950;55.840;37.442;2023-03-25T08:18:12;98036.34;;;7.96;90.53
56074;BME280;41950;55.840;37.442;2023-03-25T08:20:38;97983.72;;;7.74;90.20
56074;BME280;41950;55.840;37.442;2023-03-25T08:23:04;98036.78;;;8.09;90.25
56074;BME280;41950;55.840;37.442;2023-03-25T08:25:35;98037.47;;;8.14;90.05
56074;BME280;41950;55.840;37.442;2023-03-25T08:28:01;98042.75;;;8.11;90.36
56074;BME280;41950;55.840;37.442;2023-03-25T08:30:27;98041.84;;;8.12;90.17
56074;BME280;41950;55.840;37.442;2023-03-25T08:32:52;98022.38;;;8.02;90.49
56074;BME280;41950;55.840;37.442;2023-03-25T08:35:21;98036.47;;;8.18;90.19
56074;BME280;41950;55.840;37.442;2023-03-25T08:37:48;98014.59;;;8.03;90.39
56074;BME280;41950;55.840;37.442;2023-03-25T08:40:14;98039.16;;;8.15;90.18
56074;BME280;41950;55.840;37.442;2023-03-25T08:42:42;98019.69;;;8.05;90.48
56074;BME280;41950;55.840;37.442;2023-03-25T08:45:08;98033.78;;;8.21;90.55
56074;BME280;41950;55.840;37.442;2023-03-25T08:47:34;98036.22;;;8.26;90.97
56074;BME280;41950;55.840;37.442;2023-03-25T08:50:00;98029.38;;;8.25;90.32
56074;BME280;41950;55.840;37.442;2023-03-25T08:52:26;98031.78;;;8.29;90.33
56074;BME280;41950;55.840;37.442;2023-03-25T08:54:51;98041.09;;;8.35;90.23
56074;BME280;41950;55.840;37.442;2023-03-25T08:57:17;98029.81;;;8.38;90.08
56074;BME280;41950;55.840;37.442;2023-03-25T08:59:43;98040.94;;;8.40;90.37
56074;BME280;41950;55.840;37.442;2023-03-25T09:02:12;98034.09;;;8.39;90.32
56074;BME280;41950;55.840;37.442;2023-03-25T09:04:37;98017.78;;;8.36;90.24
56074;BME280;41950;55.840;37.442;2023-03-25T09:07:04;98013.97;;;8.47;90.17
56074;BME280;41950;55.840;37.442;2023-03-25T09:09:32;98039.34;;;8.60;90.14
56074;BME280;41950;55.840;37.442;2023-03-25T09:11:57;98032.03;;;8.72;89.67
56074;BME280;41950;55.840;37.442;2023-03-25T09:14:23;98008.28;;;8.85;89.35
56074;BME280;41950;55.840;37.442;2023-03-25T09:16:49;98010.44;;;9.19;88.51
56074;BME280;41950;55.840;37.442;2023-03-25T09:19:15;98010.63;;;9.37;87.94
56074;BME280;41950;55.840;37.442;2023-03-25T09:24:37;98028.19;;;9.50;87.03
56074;BME280;41950;55.840;37.442;2023-03-25T09:27:06;98040.91;;;9.56;85.70
56074;BME280;41950;55.840;37.442;2023-03-25T09:29:35;98052.22;;;9.54;86.10
56074;BME280;41950;55.840;37.442;2023-03-25T09:32:00;98057.78;;;9.45;86.21
56074;BME280;41950;55.840;37.442;2023-03-25T09:34:27;98066.50;;;9.42;86.77
56074;BME280;41950;55.840;37.442;2023-03-25T09:36:54;98049.97;;;9.23;86.69
56074;BME280;41950;55.840;37.442;2023-03-25T09:39:20;98055.28;;;9.20;86.96
56074;BME280;41950;55.840;37.442;2023-03-25T09:44:54;98081.22;;;8.95;87.58
56074;BME280;41950;55.840;37.442;2023-03-25T09:47:23;98079.69;;;8.89;88.33
56074;BME280;41950;55.840;37.442;2023-03-25T09:49:54;98056.94;;;8.74;88.67
56074;BME280;41950;55.840;37.442;2023-03-25T09:52:35;98069.56;;;8.83;88.75
56074;BME280;41950;55.840;37.442;2023-03-25T09:55:14;98053.03;;;8.87;88.72
56074;BME280;41950;55.840;37.442;2023-03-25T09:57:47;98042.75;;;9.09;88.07
56074;BME280;41950;55.840;37.442;2023-03-25T10:00:24;98010.28;;;9.01;87.25
56074;BME280;41950;55.840;37.442;2023-03-25T10:03:16;98033.72;;;9.19;87.56
56074;BME280;41950;55.840;37.442;2023-03-25T10:11:50;98060.97;;;9.51;86.19
56074;BME280;41950;55.840;37.442;2023-03-25T10:14:26;98056.09;;;9.44;86.65
56074;BME280;41950;55.840;37.442;2023-03-25T10:22:34;98083.31;;;9.54;86.92
56074;BME280;41950;55.840;37.442;2023-03-25T10:25:17;98070.41;;;9.52;87.00
56074;BME280;41950;55.840;37.442;2023-03-25T10:27:48;98053.13;;;9.53;86.64
56074;BME280;41950;55.840;37.442;2023-03-25T10:30:29;98037.78;;;9.70;86.44
56074;BME280;41950;55.840;37.442;2023-03-25T10:33:00;98048.72;;;9.99;86.04
56074;BME280;41950;55.840;37.442;2023-03-25T10:35:34;98061.09;;;10.12;85.26
56074;BME280;41950;55.840;37.442;2023-03-25T10:38:12;98050.91;;;10.08;84.72
56074;BME280;41950;55.840;37.442;2023-03-25T10:40:46;98037.69;;;9.94;84.91
56074;BME280;41950;55.840;37.442;2023-03-25T10:43:26;98057.00;;;10.07;85.14
56074;BME280;41950;55.840;37.442;2023-03-25T10:46:08;98034.00;;;9.99;84.97
56074;BME280;41950;55.840;37.442;2023-03-25T10:48:37;98064.84;;;10.05;85.33
56074;BME280;41950;55.840;37.442;2023-03-25T10:51:11;98057.84;;;10.07;85.11
56074;BME280;41950;55.840;37.442;2023-03-25T10:53:39;98058.38;;;9.95;85.42
56074;BME280;41950;55.840;37.442;2023-03-25T10:56:16;98047.69;;;9.81;85.44
56074;BME280;41950;55.840;37.442;2023-03-25T10:58:47;98054.34;;;9.88;85.92
56074;BME280;41950;55.840;37.442;2023-03-25T11:01:17;98057.53;;;9.95;85.88
56074;BME280;41950;55.840;37.442;2023-03-25T11:03:49;98067.56;;;10.02;85.42
56074;BME280;41950;55.840;37.442;2023-03-25T11:06:27;98058.69;;;9.87;85.64
56074;BME280;41950;55.840;37.442;2023-03-25T11:11:34;98070.06;;;9.83;86.38
56074;BME280;41950;55.840;37.442;2023-03-25T11:14:00;98051.69;;;9.68;86.34
56074;BME280;41950;55.840;37.442;2023-03-25T11:16:35;98073.75;;;9.78;86.49
56074;BME280;41950;55.840;37.442;2023-03-25T11:19:04;98074.53;;;9.80;86.61
56074;BME280;41950;55.840;37.442;2023-03-25T11:21:34;98069.34;;;9.80;86.61
56074;BME280;41950;55.840;37.442;2023-03-25T11:24:00;98058.72;;;9.86;86.78
56074;BME280;41950;55.840;37.442;2023-03-25T11:26:37;98055.13;;;9.90;86.36
56074;BME280;41950;55.840;37.442;2023-03-25T11:31:35;98072.38;;;9.91;86.07
56074;BME280;41950;55.840;37.442;2023-03-25T11:36:34;98070.81;;;9.87;86.38
56074;BME280;41950;55.840;37.442;2023-03-25T11:39:54;98041.34;;;9.68;86.47
56074;BME280;41950;55.840;37.442;2023-03-25T11:41:56;98084.75;;;9.83;86.79
56074;BME280;41950;55.840;37.442;2023-03-25T11:44:30;98085.50;;;9.86;86.93
56074;BME280;41950;55.840;37.442;2023-03-25T11:47:02;98071.69;;;9.86;86.83
56074;BME280;41950;55.840;37.442;2023-03-25T11:49:29;98070.84;;;9.85;86.70
56074;BME280;41950;55.840;37.442;2023-03-25T11:52:03;98074.25;;;9.87;86.80
56074;BME280;41950;55.840;37.442;2023-03-25T11:54:32;98070.91;;;9.84;86.76
56074;BME280;41950;55.840;37.442;2023-03-25T11:57:02;98081.25;;;9.84;86.64
56074;BME280;41950;55.840;37.442;2023-03-25T11:59:36;98069.91;;;9.88;87.03
56074;BME280;41950;55.840;37.442;2023-03-25T12:02:36;98076.69;;;9.90;86.63
56074;BME280;41950;55.840;37.442;2023-03-25T12:05:13;98076.81;;;9.87;87.03
56074;BME280;41950;55.840;37.442;2023-03-25T12:07:41;98074.19;;;9.89;87.07
56074;BME280;41950;55.840;37.442;2023-03-25T12:10:18;98073.19;;;9.91;86.91
56074;BME280;41950;55.840;37.442;2023-03-25T12:12:47;98076.25;;;10.01;86.73
56074;BME280;41950;55.840;37.442;2023-03-25T12:20:47;98079.03;;;9.97;86.57
56074;BME280;41950;55.840;37.442;2023-03-25T12:35:02;98076.19;;;10.25;85.23
56074;BME280;41950;55.840;37.442;2023-03-25T12:37:59;98072.16;;;10.17;85.58
56074;BME280;41950;55.840;37.442;2023-03-25T12:43:40;98090.72;;;10.07;85.93
56074;BME280;41950;55.840;37.442;2023-03-25T12:46:34;98083.66;;;10.10;86.11
56074;BME280;41950;55.840;37.442;2023-03-25T12:51:59;98077.47;;;10.14;86.03
56074;BME280;41950;55.840;37.442;2023-03-25T13:07:32;98077.84;;;10.87;83.11
56074;BME280;41950;55.840;37.442;2023-03-25T13:10:06;98076.47;;;11.17;81.85
56074;BME280;41950;55.840;37.442;2023-03-25T13:13:28;98070.47;;;11.35;80.59
56074;BME280;41950;55.840;37.442;2023-03-25T13:15:39;98055.50;;;11.22;80.53
56074;BME280;41950;55.840;37.442;2023-03-25T13:18:24;98041.75;;;11.20;79.91
56074;BME280;41950;55.840;37.442;2023-03-25T13:24:50;98064.91;;;11.05;80.94
56074;BME280;41950;55.840;37.442;2023-03-25T13:27:18;98058.69;;;10.89;81.05
56074;BME280;41950;55.840;37.442;2023-03-25T13:29:53;98070.78;;;10.90;80.95
56074;BME280;41950;55.840;37.442;2023-03-25T13:32:24;98078.06;;;10.82;81.39
56074;BME280;41950;55.840;37.442;2023-03-25T13:35:01;98059.78;;;10.65;81.78
56074;BME280;41950;55.840;37.442;2023-03-25T13:37:42;98075.53;;;10.60;82.31
56074;BME280;41950;55.840;37.442;2023-03-25T13:45:16;98053.84;;;10.42;82.74
56074;BME280;41950;55.840;37.442;2023-03-25T13:47:47;98058.56;;;10.53;82.61
56074;BME280;41950;55.840;37.442;2023-03-25T13:50:20;98052.34;;;10.57;82.94
56074;BME280;41950;55.840;37.442;2023-03-25T13:52:52;98072.81;;;10.63;82.57
56074;BME280;41950;55.840;37.442;2023-03-25T13:55:31;98079.38;;;10.51;82.75
56074;BME280;41950;55.840;37.442;2023-03-25T14:12:16;98086.31;;;10.71;82.29
56074;BME280;41950;55.840;37.442;2023-03-25T14:14:57;98070.94;;;10.67;82.34
56074;BME280;41950;55.840;37.442;2023-03-25T14:17:25;98064.97;;;10.65;82.44
56074;BME280;41950;55.840;37.442;2023-03-25T14:19:53;98055.25;;;10.49;82.41
56074;BME280;41950;55.840;37.442;2023-03-25T14:22:27;98084.09;;;10.62;82.47
56074;BME280;41950;55.840;37.442;2023-03-25T14:24:58;98067.53;;;10.46;82.26
56074;BME280;41950;55.840;37.442;2023-03-25T14:27:32;98081.41;;;10.45;82.58
56074;BME280;41950;55.840;37.442;2023-03-25T14:30:02;98073.41;;;10.29;82.74
56074;BME280;41950;55.840;37.442;2023-03-25T14:43:23;98085.19;;;10.16;83.35
56074;BME280;41950;55.840;37.442;2023-03-25T14:48:50;98100.78;;;10.14;84.14
56074;BME280;41950;55.840;37.442;2023-03-25T14:56:33;98105.03;;;9.95;85.05
56074;BME280;41950;55.840;37.442;2023-03-25T14:59:07;98103.66;;;9.86;85.01
56074;BME280;41950;55.840;37.442;2023-03-25T15:01:36;98111.41;;;9.86;85.51
56074;BME280;41950;55.840;37.442;2023-03-25T15:04:30;98068.50;;;9.57;85.31
56074;BME280;41950;55.840;37.442;2023-03-25T15:07:00;98104.66;;;9.82;85.69
56074;BME280;41950;55.840;37.442;2023-03-25T15:09:28;98109.75;;;9.84;85.36
56074;BME280;41950;55.840;37.442;2023-03-25T15:12:00;98107.34;;;9.79;85.71
56074;BME280;41950;55.840;37.442;2023-03-25T15:14:30;98107.28;;;9.81;85.62
56074;BME280;41950;55.840;37.442;2023-03-25T15:17:09;98083.69;;;9.67;85.46
56074;BME280;41950;55.840;37.442;2023-03-25T15:22:38;98102.00;;;9.62;86.06
56074;BME280;41950;55.840;37.442;2023-03-25T15:25:14;98113.09;;;9.66;86.04
56074;BME280;41950;55.840;37.442;2023-03-25T15:30:37;98113.34;;;9.58;86.13
56074;BME280;41950;55.840;37.442;2023-03-25T15:33:27;98096.56;;;9.46;86.56
56074;BME280;41950;55.840;37.442;2023-03-25T15:36:10;98123.91;;;9.53;86.73
56074;BME280;41950;55.840;37.442;2023-03-25T15:39:07;98130.88;;;9.51;86.79
56074;BME280;41950;55.840;37.442;2023-03-25T15:50:02;98129.00;;;9.33;87.45
56074;BME280;41950;55.840;37.442;2023-03-25T15:53:02;98135.16;;;9.29;87.75